Time;durP1;ratioP1;P1;durP2;ratioP2;P2;SDS_P1;SDS_P2;PMS_P1;PMS_P2;Temp;Humidity;BMP_temperature;BMP_pressure;BME280_temperature;BME280_humidity;BME280_pressure;Samples;Min_cycle;Max_cycle;Signal;HPM_P1;HPM_P2
2022/12/24 00:01:32;;;;;;;4.97;1.33;;;;;;;;;;4954501;28;20130;-83
2022/12/24 00:03:59;;;;;;;5.50;1.00;;;;;;;;;;4958116;28;20055;-82
2022/12/24 00:06:26;;;;;;;4.10;1.00;;;;;;;;;;4973954;28;20065;-82
2022/12/24 00:08:53;;;;;;;5.22;1.30;;;;;;;;;;4975598;28;20771;-81
2022/12/24 00:11:20;;;;;;;5.30;2.17;;;;;;;;;;4959241;28;20054;-81
2022/12/24 00:13:47;;;;;;;6.03;1.98;;;;;;;;;;4957543;28;20054;-82
2022/12/24 00:16:14;;;;;;;7.53;1.08;;;;;;;;;;4941194;28;20533;-81
2022/12/24 00:18:41;;;;;;;3.25;1.15;;;;;;;;;;4957633;28;20054;-80
2022/12/24 00:21:13;;;;;;;3.90;1.08;;;;;;;;;;4973580;28;20082;-80
2022/12/24 00:23:39;;;;;;;2.97;1.20;;;;;;;;;;4956044;28;20059;-80
2022/12/24 00:26:06;;;;;;;7.80;1.42;;;;;;;;;;4941912;28;20053;-80
2022/12/24 00:28:33;;;;;;;4.32;1.02;;;;;;;;;;4941825;28;20058;-80
2022/12/24 00:31:08;;;;;;;1.55;0.68;;;;;;;;;;4973688;28;20061;-80
2022/12/24 00:33:34;;;;;;;4.45;1.08;;;;;;;;;;4942155;28;20074;-80
2022/12/24 00:36:01;;;;;;;3.97;1.20;;;;;;;;;;4974654;28;20482;-79
2022/12/24 00:38:28;;;;;;;4.50;1.17;;;;;;;;;;4941986;28;20486;-79
2022/12/24 00:41:00;;;;;;;8.25;1.77;;;;;;;;;;4942016;28;20142;-79
2022/12/24 00:43:28;;;;;;;3.30;1.47;;;;;;;;;;4942419;28;20492;-79
2022/12/24 00:45:56;;;;;;;5.55;1.10;;;;;;;;;;4941392;28;20597;-81
2022/12/24 00:48:23;;;;;;;6.07;1.10;;;;;;;;;;4973472;28;20073;-80
2022/12/24 00:50:50;;;;;;;6.40;1.70;;;;;;;;;;4942109;28;20055;-80
2022/12/24 00:53:17;;;;;;;5.95;1.05;;;;;;;;;;4957253;28;20434;-80
2022/12/24 00:55:43;;;;;;;8.88;1.77;;;;;;;;;;4941931;28;20401;-80
2022/12/24 00:58:10;;;;;;;3.47;0.98;;;;;;;;;;4954271;29;20086;-80
2022/12/24 01:00:37;;;;;;;8.30;1.58;;;;;;;;;;4938651;29;20520;-80
2022/12/24 01:03:04;;;;;;;3.28;0.85;;;;;;;;;;4938381;29;20066;-80
2022/12/24 01:05:31;;;;;;;3.45;0.95;;;;;;;;;;4938803;29;20134;-80
2022/12/24 01:07:57;;;;;;;3.92;1.38;;;;;;;;;;4938568;29;20055;-80
2022/12/24 01:10:24;;;;;;;3.65;1.25;;;;;;;;;;4957539;28;20061;-80
2022/12/24 01:12:51;;;;;;;5.35;1.17;;;;;;;;;;4941701;28;20049;-80
2022/12/24 01:15:18;;;;;;;2.97;1.05;;;;;;;;;;4958956;28;20055;-80
2022/12/24 01:17:44;;;;;;;9.15;1.77;;;;;;;;;;4941573;28;20081;-80
2022/12/24 01:20:14;;;;;;;4.90;1.15;;;;;;;;;;4941858;28;20071;-80
2022/12/24 01:22:41;;;;;;;3.00;1.05;;;;;;;;;;4957563;28;20503;-80
2022/12/24 01:25:08;;;;;;;5.38;1.15;;;;;;;;;;4941846;28;20499;-80
2022/12/24 01:27:34;;;;;;;5.50;1.08;;;;;;;;;;4941694;28;20047;-79
2022/12/24 01:30:01;;;;;;;4.82;1.20;;;;;;;;;;4964209;28;20090;-80
2022/12/24 01:32:28;;;;;;;7.47;2.63;;;;;;;;;;4964371;28;20067;-80
2022/12/24 01:34:55;;;;;;;9.38;1.60;;;;;;;;;;4976774;28;20059;-82
2022/12/24 01:37:21;;;;;;;7.95;1.50;;;;;;;;;;4956817;28;20057;-81
2022/12/24 01:39:48;;;;;;;13.27;2.10;;;;;;;;;;4973482;28;20393;-82
2022/12/24 01:45:36;;;;;;;13.25;2.30;;;;;;;;;;4963988;28;20060;-82
2022/12/24 01:48:03;;;;;;;11.43;1.75;;;;;;;;;;4944254;28;20058;-82
2022/12/24 01:50:30;;;;;;;13.50;2.20;;;;;;;;;;4956182;28;20061;-83
2022/12/24 01:52:57;;;;;;;9.25;2.70;;;;;;;;;;4940470;28;20061;-83
2022/12/24 01:55:24;;;;;;;7.65;2.30;;;;;;;;;;4956053;28;20059;-82
2022/12/24 01:57:53;;;;;;;10.20;2.15;;;;;;;;;;4939676;28;20069;-84
2022/12/24 02:00:20;;;;;;;10.38;1.75;;;;;;;;;;4955480;28;20521;-82
2022/12/24 02:02:48;;;;;;;9.75;2.75;;;;;;;;;;4940066;28;20061;-83
2022/12/24 02:05:28;;;;;;;12.65;2.47;;;;;;;;;;4940176;28;20146;-83
2022/12/24 02:07:55;;;;;;;7.97;1.88;;;;;;;;;;4956745;28;20054;-83
2022/12/24 02:10:22;;;;;;;12.20;2.03;;;;;;;;;;4955638;28;20073;-83
2022/12/24 02:12:49;;;;;;;9.52;2.38;;;;;;;;;;4961318;28;20061;-84
2022/12/24 02:15:17;;;;;;;10.73;2.38;;;;;;;;;;4959465;28;20490;-84
2022/12/24 02:18:02;;;;;;;7.45;2.28;;;;;;;;;;4941145;28;20521;-80
2022/12/24 02:20:54;;;;;;;11.13;1.80;;;;;;;;;;4977231;28;20063;-82
2022/12/24 02:23:42;;;;;;;10.13;2.35;;;;;;;;;;4975323;28;20051;-81
2022/12/24 02:26:28;;;;;;;10.93;2.25;;;;;;;;;;4975074;28;20059;-82
2022/12/24 02:29:08;;;;;;;7.43;1.85;;;;;;;;;;4975932;28;20055;-82
2022/12/24 02:31:53;;;;;;;11.95;1.73;;;;;;;;;;4955538;28;20055;-82
2022/12/24 02:34:41;;;;;;;10.88;2.40;;;;;;;;;;4939208;28;20051;-82
2022/12/24 02:37:21;;;;;;;12.75;2.38;;;;;;;;;;4938758;28;20516;-84
2022/12/24 02:40:00;;;;;;;10.30;1.50;;;;;;;;;;4927441;29;20059;-83
2022/12/24 02:42:39;;;;;;;13.80;1.95;;;;;;;;;;4945724;28;20066;-84
2022/12/24 02:45:10;;;;;;;10.43;2.83;;;;;;;;;;4945993;28;20137;-84
2022/12/24 02:47:37;;;;;;;6.90;1.92;;;;;;;;;;4959629;28;20069;-83
2022/12/24 02:50:05;;;;;;;9.38;2.17;;;;;;;;;;4944070;28;20074;-84
2022/12/24 02:52:40;;;;;;;7.78;1.55;;;;;;;;;;4943933;28;20427;-85
2022/12/24 02:55:15;;;;;;;10.73;2.60;;;;;;;;;;4943608;28;20058;-85
2022/12/24 02:57:46;;;;;;;5.88;1.77;;;;;;;;;;4956760;29;20059;-81
2022/12/24 03:00:16;;;;;;;5.35;1.52;;;;;;;;;;4957351;28;20467;-81
2022/12/24 03:02:49;;;;;;;8.15;1.48;;;;;;;;;;4957221;28;20053;-81
2022/12/24 03:05:18;;;;;;;8.07;1.80;;;;;;;;;;4957791;29;20522;-82
2022/12/24 03:07:51;;;;;;;7.43;1.65;;;;;;;;;;4971002;28;20058;-82
2022/12/24 03:10:22;;;;;;;12.80;2.15;;;;;;;;;;4976180;28;20065;-82
2022/12/24 03:12:51;;;;;;;11.85;2.17;;;;;;;;;;4944539;28;20063;-81
2022/12/24 03:15:21;;;;;;;9.35;2.33;;;;;;;;;;4960702;28;20530;-81
2022/12/24 03:17:49;;;;;;;9.85;2.75;;;;;;;;;;4944269;28;20057;-81
2022/12/24 03:20:36;;;;;;;10.70;3.00;;;;;;;;;;4943850;28;20521;-81
2022/12/24 03:23:03;;;;;;;16.80;2.55;;;;;;;;;;4944929;28;20051;-81
2022/12/24 03:25:30;;;;;;;12.20;2.33;;;;;;;;;;4943703;28;20058;-80
2022/12/24 03:27:56;;;;;;;11.38;2.53;;;;;;;;;;4958722;28;20102;-83
2022/12/24 03:30:23;;;;;;;10.75;2.00;;;;;;;;;;4943008;28;20058;-83
2022/12/24 03:32:50;;;;;;;9.55;1.85;;;;;;;;;;4942757;28;20047;-83
2022/12/24 03:35:17;;;;;;;10.55;2.03;;;;;;;;;;4958686;28;20058;-82
2022/12/24 03:37:44;;;;;;;7.43;1.80;;;;;;;;;;4938956;29;20057;-83
2022/12/24 03:40:11;;;;;;;9.88;1.52;;;;;;;;;;4939182;28;20063;-83
2022/12/24 03:42:37;;;;;;;8.05;1.65;;;;;;;;;;4939056;29;20051;-83
2022/12/24 03:45:05;;;;;;;6.35;1.13;;;;;;;;;;4939223;29;20051;-83
2022/12/24 03:47:31;;;;;;;9.80;2.95;;;;;;;;;;4942080;28;20054;-83
2022/12/24 03:49:58;;;;;;;7.45;1.75;;;;;;;;;;4958201;28;20062;-84
2022/12/24 03:52:25;;;;;;;8.50;1.55;;;;;;;;;;4958264;28;20519;-83
2022/12/24 03:54:51;;;;;;;9.57;1.90;;;;;;;;;;4944763;28;20055;-83
2022/12/24 03:57:18;;;;;;;8.27;2.38;;;;;;;;;;4973793;28;20054;-84
2022/12/24 03:59:45;;;;;;;5.22;1.55;;;;;;;;;;4941927;28;20672;-82
2022/12/24 04:02:12;;;;;;;8.23;1.52;;;;;;;;;;4973540;28;20065;-82
2022/12/24 04:04:38;;;;;;;4.97;1.30;;;;;;;;;;4957724;28;20153;-83
2022/12/24 04:07:05;;;;;;;8.88;1.67;;;;;;;;;;4957304;28;20067;-82
2022/12/24 04:09:32;;;;;;;9.73;1.92;;;;;;;;;;4973921;28;20059;-82
2022/12/24 04:11:59;;;;;;;4.47;1.15;;;;;;;;;;4958224;28;20058;-80
2022/12/24 04:14:25;;;;;;;9.10;1.90;;;;;;;;;;4943070;28;20051;-82
2022/12/24 04:16:52;;;;;;;7.97;1.92;;;;;;;;;;4941797;28;20061;-82
2022/12/24 04:19:19;;;;;;;8.57;1.60;;;;;;;;;;4942066;28;20058;-82
2022/12/24 04:21:46;;;;;;;8.35;1.42;;;;;;;;;;4941852;28;20423;-81
2022/12/24 04:24:12;;;;;;;7.25;1.20;;;;;;;;;;4958242;28;20463;-81
2022/12/24 04:26:39;;;;;;;8.85;1.55;;;;;;;;;;4941939;28;20061;-82
2022/12/24 04:29:06;;;;;;;9.27;2.17;;;;;;;;;;4953741;29;20051;-82
2022/12/24 04:31:32;;;;;;;10.45;2.15;;;;;;;;;;4938108;28;20110;-82
2022/12/24 04:33:59;;;;;;;12.85;2.75;;;;;;;;;;4954086;29;20113;-83
2022/12/24 04:36:26;;;;;;;11.05;3.25;;;;;;;;;;4955062;28;20054;-82
2022/12/24 04:38:52;;;;;;;6.05;1.80;;;;;;;;;;4957058;28;20501;-82
2022/12/24 04:41:21;;;;;;;10.27;2.50;;;;;;;;;;4957718;28;20058;-82
2022/12/24 04:43:51;;;;;;;10.30;1.52;;;;;;;;;;4957528;28;20051;-82
2022/12/24 04:46:21;;;;;;;8.23;1.92;;;;;;;;;;4956634;28;20070;-83
2022/12/24 04:48:49;;;;;;;8.77;2.08;;;;;;;;;;4942185;28;20054;-82
2022/12/24 04:51:16;;;;;;;12.68;1.60;;;;;;;;;;4943969;28;20367;-82
2022/12/24 04:53:43;;;;;;;8.65;2.00;;;;;;;;;;4945287;28;20059;-82
2022/12/24 04:56:24;;;;;;;10.70;2.20;;;;;;;;;;4944819;28;20063;-82
2022/12/24 04:58:51;;;;;;;6.95;1.85;;;;;;;;;;4957381;29;20058;-82
2022/12/24 05:01:23;;;;;;;6.53;1.50;;;;;;;;;;4940997;29;20563;-82
2022/12/24 05:03:50;;;;;;;8.33;1.43;;;;;;;;;;4941696;29;20047;-81
2022/12/24 05:06:21;;;;;;;6.15;1.80;;;;;;;;;;4942474;29;20550;-84
2022/12/24 05:08:48;;;;;;;7.97;1.58;;;;;;;;;;4957063;29;20059;-82
2022/12/24 05:11:15;;;;;;;10.77;1.92;;;;;;;;;;4973405;28;20061;-83
2022/12/24 05:13:43;;;;;;;7.43;2.22;;;;;;;;;;4941748;29;20126;-82
2022/12/24 05:16:14;;;;;;;12.27;2.47;;;;;;;;;;4943932;28;20059;-82
2022/12/24 05:18:41;;;;;;;11.88;2.55;;;;;;;;;;4964783;28;20519;-82
2022/12/24 05:21:14;;;;;;;10.35;1.90;;;;;;;;;;4963083;28;20511;-82
2022/12/24 05:26:32;;;;;;;15.13;2.28;;;;;;;;;;4978360;28;20055;-84
2022/12/24 05:28:59;;;;;;;10.35;2.35;;;;;;;;;;4962632;28;20082;-82
2022/12/24 05:31:27;;;;;;;11.85;2.55;;;;;;;;;;4945206;28;20217;-82
2022/12/24 05:33:54;;;;;;;5.85;2.30;;;;;;;;;;4944647;28;20061;-82
2022/12/24 05:36:22;;;;;;;10.48;2.40;;;;;;;;;;4941390;29;20055;-82
2022/12/24 05:38:49;;;;;;;9.00;2.00;;;;;;;;;;4926555;29;20435;-84
2022/12/24 05:41:16;;;;;;;10.48;2.40;;;;;;;;;;4941121;29;20059;-83
2022/12/24 05:43:43;;;;;;;11.55;2.13;;;;;;;;;;4942083;29;20134;-83
2022/12/24 05:46:11;;;;;;;5.72;2.25;;;;;;;;;;4944323;28;20139;-83
2022/12/24 05:48:38;;;;;;;9.35;2.33;;;;;;;;;;4961163;28;20050;-83
2022/12/24 05:51:08;;;;;;;9.80;2.42;;;;;;;;;;4976025;28;20059;-83
2022/12/24 05:53:35;;;;;;;8.95;2.17;;;;;;;;;;4962551;28;20410;-84
2022/12/24 05:56:06;;;;;;;12.38;1.88;;;;;;;;;;4962371;28;20055;-85
2022/12/24 05:58:33;;;;;;;14.45;2.05;;;;;;;;;;4963735;28;20061;-85
2022/12/24 06:01:01;;;;;;;15.93;2.40;;;;;;;;;;4958654;29;20255;-85
2022/12/24 06:03:28;;;;;;;15.30;2.28;;;;;;;;;;4952605;28;20105;-82
2022/12/24 06:05:59;;;;;;;11.40;1.90;;;;;;;;;;4975455;28;20062;-82
2022/12/24 06:08:26;;;;;;;10.20;1.90;;;;;;;;;;4959048;28;20495;-82
2022/12/24 06:10:55;;;;;;;7.82;1.70;;;;;;;;;;4944315;28;20065;-82
2022/12/24 06:13:22;;;;;;;13.57;2.10;;;;;;;;;;4944151;28;20058;-82
2022/12/24 06:15:49;;;;;;;16.70;2.45;;;;;;;;;;4965627;28;20058;-82
2022/12/24 06:18:16;;;;;;;7.65;1.80;;;;;;;;;;4958448;28;20141;-83
2022/12/24 06:20:43;;;;;;;7.82;1.90;;;;;;;;;;4943530;28;20470;-84
2022/12/24 06:23:10;;;;;;;9.20;2.42;;;;;;;;;;4958705;28;20051;-80
2022/12/24 06:25:36;;;;;;;7.95;2.25;;;;;;;;;;4955137;28;20396;-83
2022/12/24 06:28:03;;;;;;;10.20;2.40;;;;;;;;;;4957038;28;20164;-82
2022/12/24 06:30:30;;;;;;;13.18;2.33;;;;;;;;;;4942057;28;20058;-82
2022/12/24 06:32:58;;;;;;;15.20;3.28;;;;;;;;;;4959531;28;20066;-83
2022/12/24 06:35:24;;;;;;;10.45;2.75;;;;;;;;;;4974640;28;20050;-82
2022/12/24 06:37:51;;;;;;;14.00;3.00;;;;;;;;;;4943338;28;20054;-81
2022/12/24 06:40:18;;;;;;;9.95;2.67;;;;;;;;;;4974394;28;20827;-82
2022/12/24 06:42:44;;;;;;;6.55;2.10;;;;;;;;;;4957987;28;20065;-81
2022/12/24 06:45:11;;;;;;;12.75;3.63;;;;;;;;;;4957629;28;20058;-81
2022/12/24 06:47:38;;;;;;;12.65;3.95;;;;;;;;;;4950033;29;20183;-81
2022/12/24 06:50:05;;;;;;;13.52;3.47;;;;;;;;;;4958475;29;20055;-81
2022/12/24 06:52:32;;;;;;;13.10;2.53;;;;;;;;;;4944050;29;20062;-81
2022/12/24 06:54:59;;;;;;;17.10;2.88;;;;;;;;;;4958416;29;20051;-81
2022/12/24 06:57:25;;;;;;;10.75;2.55;;;;;;;;;;4942207;29;20051;-82
2022/12/24 06:59:52;;;;;;;12.05;2.20;;;;;;;;;;4971264;28;20095;-81
2022/12/24 07:02:19;;;;;;;8.70;2.33;;;;;;;;;;4960916;28;20110;-82
2022/12/24 07:04:46;;;;;;;8.30;2.35;;;;;;;;;;4961143;28;20095;-81
2022/12/24 07:07:12;;;;;;;7.70;1.90;;;;;;;;;;4960896;28;20043;-82
2022/12/24 07:09:39;;;;;;;11.50;2.60;;;;;;;;;;4961067;28;20039;-82
2022/12/24 07:12:06;;;;;;;10.45;2.50;;;;;;;;;;4960799;28;20042;-82
2022/12/24 07:14:33;;;;;;;12.45;2.03;;;;;;;;;;4961074;28;20107;-82
2022/12/24 07:17:00;;;;;;;12.80;4.55;;;;;;;;;;4945059;28;20040;-81
2022/12/24 07:19:30;;;;;;;8.10;2.03;;;;;;;;;;4945409;28;20039;-83
2022/12/24 07:21:57;;;;;;;8.80;2.85;;;;;;;;;;4976890;28;20043;-83
2022/12/24 07:24:23;;;;;;;12.85;2.30;;;;;;;;;;4988149;28;20107;-82
2022/12/24 07:26:50;;;;;;;11.52;2.00;;;;;;;;;;4980485;28;20050;-82
2022/12/24 07:29:17;;;;;;;9.05;2.55;;;;;;;;;;4958919;28;20062;-81
2022/12/24 07:31:44;;;;;;;8.32;2.95;;;;;;;;;;4975696;28;20448;-82
2022/12/24 07:34:10;;;;;;;8.07;2.40;;;;;;;;;;4959237;28;20134;-81
2022/12/24 07:36:37;;;;;;;8.10;2.75;;;;;;;;;;4975829;28;20078;-82
2022/12/24 07:39:04;;;;;;;8.25;2.90;;;;;;;;;;4942773;28;20611;-84
2022/12/24 07:41:31;;;;;;;11.00;2.60;;;;;;;;;;4947404;28;20055;-80
2022/12/24 07:44:10;;;;;;;10.32;2.03;;;;;;;;;;4965777;28;20054;-80
2022/12/24 07:46:38;;;;;;;9.05;2.95;;;;;;;;;;4944005;28;20141;-80
2022/12/24 07:49:04;;;;;;;8.95;2.50;;;;;;;;;;4958229;28;20051;-77
2022/12/24 07:51:31;;;;;;;15.10;4.20;;;;;;;;;;4966561;28;20049;-79
2022/12/24 07:53:58;;;;;;;6.82;2.75;;;;;;;;;;4938317;29;20076;-77
2022/12/24 07:56:25;;;;;;;9.50;2.35;;;;;;;;;;4922568;29;20051;-76
2022/12/24 07:58:51;;;;;;;8.35;3.05;;;;;;;;;;4936090;29;20055;-78
2022/12/24 08:01:18;;;;;;;10.80;2.53;;;;;;;;;;4941029;29;20062;-76
2022/12/24 08:03:45;;;;;;;6.15;2.10;;;;;;;;;;4953718;28;20051;-77
2022/12/24 08:06:12;;;;;;;6.75;1.95;;;;;;;;;;4961142;28;20055;-81
2022/12/24 08:08:39;;;;;;;8.25;2.58;;;;;;;;;;4946276;28;20435;-80
2022/12/24 08:11:06;;;;;;;7.65;2.70;;;;;;;;;;4940209;29;20055;-80
2022/12/24 08:13:33;;;;;;;11.27;5.63;;;;;;;;;;4939787;29;20356;-80
2022/12/24 08:15:59;;;;;;;6.80;3.45;;;;;;;;;;4955721;29;20059;-80
2022/12/24 08:18:26;;;;;;;11.02;3.30;;;;;;;;;;4942207;28;20547;-80
2022/12/24 08:20:53;;;;;;;5.75;2.33;;;;;;;;;;4942991;28;20154;-80
2022/12/24 08:23:20;;;;;;;9.35;2.67;;;;;;;;;;4959266;28;20047;-81
2022/12/24 08:25:47;;;;;;;9.80;2.00;;;;;;;;;;4959612;28;20051;-80
2022/12/24 08:28:15;;;;;;;8.82;2.33;;;;;;;;;;4959654;28;20070;-81
2022/12/24 08:30:42;;;;;;;12.48;4.25;;;;;;;;;;4964331;28;20051;-81
2022/12/24 08:33:09;;;;;;;12.27;3.65;;;;;;;;;;4944535;28;20431;-81
2022/12/24 08:35:36;;;;;;;9.07;3.22;;;;;;;;;;4958692;28;20085;-81
2022/12/24 08:38:03;;;;;;;10.18;3.83;;;;;;;;;;4976600;28;20119;-82
2022/12/24 08:40:30;;;;;;;13.82;4.43;;;;;;;;;;4950621;28;20047;-78
2022/12/24 08:42:57;;;;;;;11.15;3.40;;;;;;;;;;4948654;29;20062;-79
2022/12/24 08:45:23;;;;;;;10.82;2.35;;;;;;;;;;4925275;28;20055;-80
2022/12/24 08:47:50;;;;;;;15.10;2.90;;;;;;;;;;4950293;28;20540;-81
2022/12/24 08:50:17;;;;;;;10.05;2.08;;;;;;;;;;4963325;28;20051;-80
2022/12/24 08:52:44;;;;;;;9.95;2.35;;;;;;;;;;4937433;28;20446;-78
2022/12/24 08:55:11;;;;;;;10.55;3.22;;;;;;;;;;4953114;28;20051;-80
2022/12/24 08:57:37;;;;;;;12.13;2.10;;;;;;;;;;4960225;28;20062;-80
2022/12/24 09:00:06;;;;;;;8.75;2.10;;;;;;;;;;4976052;28;20389;-80
2022/12/24 09:02:33;;;;;;;11.90;3.13;;;;;;;;;;4943286;28;20137;-80
2022/12/24 09:05:00;;;;;;;11.65;3.00;;;;;;;;;;4975425;28;20590;-81
2022/12/24 09:07:26;;;;;;;7.47;2.90;;;;;;;;;;4941458;28;20062;-83
2022/12/24 09:09:53;;;;;;;6.93;2.60;;;;;;;;;;4957512;28;20061;-76
2022/12/24 09:12:20;;;;;;;10.77;2.20;;;;;;;;;;4972506;28;20059;-76
2022/12/24 09:14:47;;;;;;;12.93;2.55;;;;;;;;;;4950631;28;20103;-78
2022/12/24 09:17:13;;;;;;;7.63;2.10;;;;;;;;;;4977636;28;20086;-79
2022/12/24 09:19:40;;;;;;;7.78;2.22;;;;;;;;;;4977813;28;20483;-79
2022/12/24 09:22:07;;;;;;;9.88;2.78;;;;;;;;;;4974398;28;20058;-78
2022/12/24 09:24:35;;;;;;;10.85;2.85;;;;;;;;;;4943661;28;20066;-80
2022/12/24 09:27:02;;;;;;;9.82;2.58;;;;;;;;;;4942016;28;20100;-79
2022/12/24 09:29:30;;;;;;;10.57;2.83;;;;;;;;;;4958039;28;20470;-77
2022/12/24 09:31:57;;;;;;;6.03;2.55;;;;;;;;;;4958204;28;20057;-79
2022/12/24 09:34:24;;;;;;;11.52;3.20;;;;;;;;;;4953660;28;20055;-78
2022/12/24 09:36:56;;;;;;;10.77;2.45;;;;;;;;;;4933261;29;20364;-75
2022/12/24 09:39:23;;;;;;;8.60;2.75;;;;;;;;;;4951689;29;20077;-75
2022/12/24 09:42:10;;;;;;;12.25;3.70;;;;;;;;;;4935476;29;20082;-75
2022/12/24 09:44:57;;;;;;;13.00;2.88;;;;;;;;;;4937435;29;20146;-75
2022/12/24 09:47:37;;;;;;;13.25;2.53;;;;;;;;;;4970983;28;20143;-76
2022/12/24 09:50:21;;;;;;;13.82;3.38;;;;;;;;;;4975745;28;20054;-75
2022/12/24 09:52:47;;;;;;;9.35;2.55;;;;;;;;;;4956324;28;20066;-74
2022/12/24 09:55:24;;;;;;;9.38;1.90;;;;;;;;;;4938985;28;20050;-74
2022/12/24 09:57:52;;;;;;;11.38;2.28;;;;;;;;;;4964098;28;20055;-75
2022/12/24 10:00:23;;;;;;;12.82;2.78;;;;;;;;;;4944020;28;20078;-75
2022/12/24 10:02:51;;;;;;;7.28;1.80;;;;;;;;;;4944845;28;20503;-76
2022/12/24 10:05:25;;;;;;;8.82;2.03;;;;;;;;;;4971362;28;20172;-77
2022/12/24 10:08:22;;;;;;;11.50;2.20;;;;;;;;;;4946747;28;20080;-78
2022/12/24 10:10:52;;;;;;;9.43;2.25;;;;;;;;;;4960809;28;20086;-75
2022/12/24 10:14:13;;;;;;;10.90;2.20;;;;;;;;;;4956892;28;20054;-75
2022/12/24 10:16:49;;;;;;;11.27;2.22;;;;;;;;;;4876184;29;20496;-75
2022/12/24 10:19:26;;;;;;;9.88;2.00;;;;;;;;;;4965153;28;20536;-75
2022/12/24 10:22:21;;;;;;;9.80;2.03;;;;;;;;;;4949585;28;20397;-76
2022/12/24 10:24:58;;;;;;;13.13;2.50;;;;;;;;;;4978673;28;20046;-76
2022/12/24 10:27:28;;;;;;;8.73;1.70;;;;;;;;;;4951609;28;20051;-81
2022/12/24 10:30:05;;;;;;;10.88;2.15;;;;;;;;;;4933256;28;20055;-80
2022/12/24 10:32:38;;;;;;;7.82;1.77;;;;;;;;;;4943282;28;20063;-81
2022/12/24 10:35:13;;;;;;;9.27;2.10;;;;;;;;;;4950677;28;20161;-81
2022/12/24 10:37:48;;;;;;;17.95;3.22;;;;;;;;;;4945880;28;20089;-81
2022/12/24 10:40:39;;;;;;;9.95;2.75;;;;;;;;;;4934854;28;20541;-81
2022/12/24 10:43:21;;;;;;;7.07;2.00;;;;;;;;;;4945340;28;20047;-80
2022/12/24 10:45:56;;;;;;;11.20;1.83;;;;;;;;;;4945401;28;20059;-76
2022/12/24 10:48:29;;;;;;;12.60;2.80;;;;;;;;;;4944410;28;20165;-78
2022/12/24 10:51:01;;;;;;;;;;;;;;;;;;4936334;28;20053;-78
2022/12/24 10:53:53;;;;;;;8.70;3.13;;;;;;;;;;4962726;28;21179;-77
2022/12/24 10:56:20;;;;;;;10.73;2.67;;;;;;;;;;4939599;28;20086;-78
2022/12/24 10:58:54;;;;;;;10.93;2.60;;;;;;;;;;4960971;28;20727;-81
2022/12/24 11:01:41;;;;;;;11.00;2.50;;;;;;;;;;4948207;28;20050;-81
2022/12/24 11:04:17;;;;;;;8.95;2.90;;;;;;;;;;4947464;28;20407;-82
2022/12/24 11:06:55;;;;;;;13.32;2.38;;;;;;;;;;4957789;28;20058;-80
2022/12/24 11:09:28;;;;;;;11.90;2.67;;;;;;;;;;4953588;28;20062;-81
2022/12/24 11:11:57;;;;;;;;;;;;;;;;;;4947610;28;20159;-81
2022/12/24 11:14:33;;;;;;;9.50;2.20;;;;;;;;;;4964667;28;19934;-80
2022/12/24 11:17:00;;;;;;;7.85;2.78;;;;;;;;;;4962652;28;20055;-80
2022/12/24 11:19:32;;;;;;;10.63;2.25;;;;;;;;;;4973672;28;20059;-80
2022/12/24 11:22:04;;;;;;;8.43;2.03;;;;;;;;;;4958322;28;20106;-80
2022/12/24 11:24:34;;;;;;;7.90;2.25;;;;;;;;;;4948403;28;20047;-77
2022/12/24 11:27:22;;;;;;;13.57;3.20;;;;;;;;;;4960757;28;20046;-77
2022/12/24 11:29:49;;;;;;;10.23;2.95;;;;;;;;;;4961244;28;20062;-77
2022/12/24 11:32:21;;;;;;;7.97;2.90;;;;;;;;;;4960174;28;20138;-77
2022/12/24 11:34:48;;;;;;;4.87;1.90;;;;;;;;;;4949175;28;20830;-81
2022/12/24 11:37:23;;;;;;;10.20;2.90;;;;;;;;;;4936250;28;20411;-81
2022/12/24 11:39:59;;;;;;;10.85;3.10;;;;;;;;;;4970405;28;20503;-81
2022/12/24 11:42:37;;;;;;;12.57;3.70;;;;;;;;;;4965177;28;20055;-81
2022/12/24 11:45:25;;;;;;;10.88;4.85;;;;;;;;;;4980936;28;20057;-81
2022/12/24 11:47:53;;;;;;;10.73;3.22;;;;;;;;;;4963948;28;20055;-81
2022/12/24 11:50:24;;;;;;;13.52;4.45;;;;;;;;;;4951974;28;20057;-81
2022/12/24 11:53:29;;;;;;;14.98;5.18;;;;;;;;;;4966128;28;20059;-80
2022/12/24 11:55:57;;;;;;;14.55;4.95;;;;;;;;;;4967528;28;20046;-81
2022/12/24 11:58:42;;;;;;;9.98;4.15;;;;;;;;;;4949751;28;20058;-79
2022/12/24 12:01:35;;;;;;;16.83;4.35;;;;;;;;;;4971881;28;20055;-78
2022/12/24 12:04:05;;;;;;;10.90;3.80;;;;;;;;;;4946574;28;20086;-76
2022/12/24 12:06:35;;;;;;;12.48;3.25;;;;;;;;;;4961655;28;20107;-75
2022/12/24 12:09:11;;;;;;;11.90;2.72;;;;;;;;;;4942786;28;20069;-75
2022/12/24 12:11:38;;;;;;;8.63;2.50;;;;;;;;;;4959742;28;20058;-78
2022/12/24 12:14:05;;;;;;;8.93;2.50;;;;;;;;;;4948824;28;20111;-76
2022/12/24 12:16:59;;;;;;;12.68;2.95;;;;;;;;;;4977411;28;20070;-76
2022/12/24 12:19:28;;;;;;;13.63;3.63;;;;;;;;;;4947640;28;20051;-77
2022/12/24 12:21:55;;;;;;;13.82;2.53;;;;;;;;;;4940127;28;20154;-77
2022/12/24 12:24:26;;;;;;;14.60;3.03;;;;;;;;;;4953734;28;20522;-79
2022/12/24 12:27:20;;;;;;;13.23;3.58;;;;;;;;;;4954703;28;20051;-77
2022/12/24 12:29:51;;;;;;;12.73;3.15;;;;;;;;;;4940361;28;20051;-77
2022/12/24 12:32:54;;;;;;;16.73;3.47;;;;;;;;;;4930170;28;20066;-79
2022/12/24 12:35:29;;;;;;;10.05;2.17;;;;;;;;;;4956300;28;20479;-79
2022/12/24 12:38:01;;;;;;;16.85;2.92;;;;;;;;;;4948985;28;20137;-77
2022/12/24 12:41:01;;;;;;;9.30;2.17;;;;;;;;;;4957046;28;20051;-80
2022/12/24 12:43:40;;;;;;;14.45;3.88;;;;;;;;;;4943611;28;20048;-80
2022/12/24 12:46:30;;;;;;;14.10;2.83;;;;;;;;;;4952694;28;20051;-80
2022/12/24 12:49:23;;;;;;;15.02;3.70;;;;;;;;;;4984026;28;20061;-80
2022/12/24 12:52:02;;;;;;;;;;;;;;;;;;4961345;28;20052;-81
2022/12/24 12:54:35;;;;;;;12.32;3.00;;;;;;;;;;4984596;28;20369;-81
2022/12/24 12:57:07;;;;;;;12.05;3.28;;;;;;;;;;4956321;28;20055;-80
2022/12/24 12:59:38;;;;;;;11.23;2.45;;;;;;;;;;4941589;28;20055;-77
2022/12/24 13:02:14;;;;;;;11.70;2.92;;;;;;;;;;4955396;28;20066;-76
2022/12/24 13:04:59;;;;;;;11.25;2.38;;;;;;;;;;4967105;28;20086;-78
2022/12/24 13:07:58;;;;;;;21.13;3.67;;;;;;;;;;4981029;28;20062;-79
2022/12/24 13:10:53;;;;;;;16.58;3.35;;;;;;;;;;4963130;28;20109;-79
2022/12/24 13:13:48;;;;;;;10.32;3.20;;;;;;;;;;4967655;28;20094;-78
2022/12/24 13:16:50;;;;;;;12.20;3.03;;;;;;;;;;4966648;28;20070;-79
2022/12/24 13:19:39;;;;;;;12.18;2.90;;;;;;;;;;4967235;28;20051;-78
2022/12/24 13:22:17;;;;;;;11.43;3.25;;;;;;;;;;4971660;28;20051;-79
2022/12/24 13:24:49;;;;;;;12.57;3.85;;;;;;;;;;4947133;28;20082;-79
2022/12/24 13:27:24;;;;;;;14.18;3.53;;;;;;;;;;4958181;28;20062;-80
2022/12/24 13:30:00;;;;;;;14.20;3.35;;;;;;;;;;4973875;28;20062;-80
2022/12/24 13:32:47;;;;;;;12.35;2.72;;;;;;;;;;4963473;28;20086;-79
2022/12/24 13:35:18;;;;;;;10.43;2.80;;;;;;;;;;4964609;28;20479;-80
2022/12/24 13:37:47;;;;;;;15.07;3.08;;;;;;;;;;4968228;28;20054;-80
2022/12/24 13:40:26;;;;;;;12.35;3.00;;;;;;;;;;4961269;28;20051;-80
2022/12/24 13:43:00;;;;;;;10.05;2.42;;;;;;;;;;4950029;28;20648;-80
2022/12/24 13:45:37;;;;;;;13.52;3.22;;;;;;;;;;4967225;28;20130;-79
2022/12/24 13:48:10;;;;;;;17.38;2.67;;;;;;;;;;4967709;28;20066;-79
2022/12/24 13:50:37;;;;;;;15.52;3.50;;;;;;;;;;4967012;28;20093;-77
2022/12/24 13:53:05;;;;;;;14.00;3.03;;;;;;;;;;4954549;28;20054;-78
2022/12/24 13:55:32;;;;;;;12.27;3.63;;;;;;;;;;4949737;28;20058;-78
2022/12/24 13:58:03;;;;;;;16.55;3.95;;;;;;;;;;4942665;28;20067;-76
2022/12/24 14:00:40;;;;;;;14.77;3.90;;;;;;;;;;4949700;28;20103;-78
2022/12/24 14:03:13;;;;;;;14.32;3.20;;;;;;;;;;4967847;28;20463;-77
2022/12/24 14:05:43;;;;;;;;;;;;;;;;;;4974367;28;20058;-78
2022/12/24 14:08:21;;;;;;;14.55;3.25;;;;;;;;;;4964607;28;20197;-76
2022/12/24 14:11:12;;;;;;;13.13;3.28;;;;;;;;;;4974673;28;20098;-77
2022/12/24 14:13:38;;;;;;;15.30;3.28;;;;;;;;;;4968439;28;20054;-77
2022/12/24 14:16:11;;;;;;;14.18;3.13;;;;;;;;;;4964813;28;20762;-77
2022/12/24 14:18:39;;;;;;;;;;;;;;;;;;4973581;28;20058;-78
2022/12/24 14:21:11;;;;;;;16.95;3.20;;;;;;;;;;4976165;28;19969;-77
2022/12/24 14:23:43;;;;;;;17.10;4.47;;;;;;;;;;4931596;28;20127;-77
2022/12/24 14:26:18;;;;;;;13.65;4.15;;;;;;;;;;4962486;28;20059;-77
2022/12/24 14:28:56;;;;;;;18.00;3.78;;;;;;;;;;4945381;28;20111;-80
2022/12/24 14:31:23;;;;;;;16.20;3.45;;;;;;;;;;4944745;28;20070;-77
2022/12/24 14:33:51;;;;;;;11.20;3.55;;;;;;;;;;4957624;28;20392;-77
2022/12/24 14:36:21;;;;;;;21.67;4.18;;;;;;;;;;4959059;28;20058;-77
2022/12/24 14:38:48;;;;;;;13.25;3.22;;;;;;;;;;4962490;28;20046;-77
2022/12/24 14:41:25;;;;;;;16.38;4.00;;;;;;;;;;4961339;28;20053;-79
2022/12/24 14:44:23;;;;;;;14.43;4.13;;;;;;;;;;4971982;28;20118;-76
2022/12/24 14:46:57;;;;;;;13.70;3.30;;;;;;;;;;4961487;28;20047;-79
2022/12/24 14:50:05;;;;;;;11.30;3.58;;;;;;;;;;4983246;28;20111;-79
2022/12/24 14:52:45;;;;;;;12.45;3.13;;;;;;;;;;5004340;28;20050;-79
2022/12/24 14:55:35;;;;;;;10.10;3.67;;;;;;;;;;4987793;28;20634;-79
2022/12/24 14:58:24;;;;;;;15.32;3.30;;;;;;;;;;4988005;28;20094;-80
2022/12/24 15:00:54;;;;;;;10.02;3.30;;;;;;;;;;4987866;28;20035;-79
2022/12/24 15:03:23;;;;;;;8.07;2.80;;;;;;;;;;4956401;28;20074;-80
2022/12/24 15:06:00;;;;;;;10.85;2.70;;;;;;;;;;4948600;28;20055;-79
2022/12/24 15:08:31;;;;;;;17.83;3.95;;;;;;;;;;4961682;28;20081;-81
2022/12/24 15:11:01;;;;;;;16.30;4.35;;;;;;;;;;4941476;28;20055;-80